메인 페이지
METAR-TAF:

METAR-TAF

공항 :

블라디캅카스, 러시아

위도: 43-12-18N, 경도: 044-36-24E, 고도: 510m

현재 날씨관측

예보는 17분 전, 19:00시(UTC)에 발표되었습니다.
동남동6kt
온도 7°C
습도 70%
기압 1020 hPa
시정 10km 이상

METAR: URMO 251900Z AUTO 12003MPS 9999 // NCD 07/02 Q1020 RMK QFE721/0962

시각: 22:17 (19:17 UTC)

예보

예보는 5 시간 17분 전, 14:00시(UTC)에 발표되었습니다.
예보 대상 시간: 25일 15시부터 25일 21시까지 (UTC)
북동6kt, 순간 최대 풍속 16kt
시정 10km 이상
고도 3000ft 상공 구름 보통
일시적
25일 15시부터 25일 18시까지 (UTC)
여러 방향의 바람 2kt

TAF: URMO 251400Z 2515/2521 04003G08MPS 9999 SCT030 TEMPO 2515/2518 VRB01MPS

4,000개 이상의 공항 관측 자료 및 예보 (METAR 및 TAF 보고).

지도상에서 검색 가능한 기상관측소가 노란 점과 빨간 점으로 표시되어 있습니다.

기상관측소 명을 보려면 표시 위로 마우스를 이동하세요.

날씨 관측과 예보를 보려면 클릭하세요.

지도 변경 : 확대하려면 엑스 표시가 있는 녹색 버튼, 축소하려면 빼기 표시가 있는 녹색 버튼, 다음 페이지의 지도를 보려면 녹색 화살표를 클릭하세요.


METAR-TAF: